This is the latest recevied weather packets stored in our database for station/object DL8BNG-13. If no packets are shown the sender has not sent any weather packets the latest 10 day(s).
| Time | Temp. | Humidity | Pressure | Rain* | Wind** | Luminosity | Snow |
|---|---|---|---|---|---|---|---|
| 1788494402 | 17.22° C | 77% | - | 0 mm | - | - | - |
| 1788492603 | 17.22° C | 76% | - | 0 mm | - | - | - |
| 1788491702 | 17.78° C | 76% | - | 0 mm | - | - | - |
| 1788471003 | 18.89° C | 68% | - | 0 mm | - | - | - |
| 1788470102 | 18.89° C | 67% | - | 0 mm | - | - | - |
| 1788469202 | 18.89° C | 68% | - | 0 mm | - | - | - |
| 1788467402 | 19.44° C | 64% | - | 0 mm | - | - | - |
| 1788465602 | 21.11° C | 59% | - | 0 mm | - | - | - |
| 1788464703 | 21.67° C | 56% | - | 0 mm | - | - | - |
| 1788442202 | 23.33° C | 43% | - | 0 mm | - | - | - |
| 1788434103 | 22.22° C | 40% | - | 0 mm | - | - | - |
| 1788433205 | 21.67° C | 41% | - | 0 mm | - | - | - |
| 1788432303 | 21.11° C | 42% | - | 0 mm | - | - | - |
| 1788431403 | 20.56° C | 42% | - | 0 mm | - | - | - |
| 1788430503 | 20° C | 45% | - | 0 mm | - | - | - |
| 1788429602 | 20° C | 45% | - | 0 mm | - | - | - |
| 1788428702 | 19.44° C | 47% | - | 0 mm | - | - | - |
| 1788427802 | 18.89° C | 51% | - | 0 mm | - | - | - |
| 1788426903 | 18.33° C | 54% | - | 0 mm | - | - | - |
| 1788425103 | 17.22° C | 55% | - | 0 mm | - | - | - |
| 1788424203 | 17.22° C | 55% | - | 0 mm | - | - | - |
| 1788423302 | 16.67° C | 56% | - | 0 mm | - | - | - |
| 1788422404 | 16.67° C | 56% | - | 0 mm | - | - | - |
| 1788420603 | 15.56° C | 57% | - | 0 mm | - | - | - |
| 1788419703 | 15° C | 62% | - | 0 mm | - | - | - |
* Rain since midnight (hover to see other rain measurements)
** Current wind speed in m/s (hover to see current wind gust speed)